createdAt,value
2018-07-15T00:02:35.840Z,61.76
2018-07-15T00:07:38.028Z,62.74
2018-07-15T00:12:40.210Z,64.06
2018-07-15T00:17:42.354Z,64.52
2018-07-15T00:22:44.495Z,64.67
2018-07-15T00:27:46.714Z,64.86
2018-07-15T00:32:48.923Z,65.32
2018-07-15T00:37:51.133Z,65.59
2018-07-15T00:42:53.307Z,65.18
2018-07-15T00:47:55.496Z,66.12
2018-07-15T00:52:58.391Z,65.47
2018-07-15T00:58:00.583Z,65.37
2018-07-15T01:03:02.754Z,64.93
2018-07-15T01:08:04.982Z,65.76
2018-07-15T01:13:07.192Z,65.93
2018-07-15T01:18:09.366Z,66.18
2018-07-15T01:23:11.511Z,66.55
2018-07-15T01:28:13.723Z,66.88
2018-07-15T01:33:15.872Z,67.05
2018-07-15T01:38:18.029Z,67.06
2018-07-15T01:43:20.176Z,67.30
2018-07-15T01:48:22.348Z,67.60
2018-07-15T01:53:24.516Z,67.82
2018-07-15T01:58:26.668Z,68.05
2018-07-15T02:03:28.988Z,68.23
2018-07-15T02:08:31.149Z,69.47
2018-07-15T02:13:33.276Z,68.57
2018-07-15T02:18:35.451Z,68.82
2018-07-15T02:23:37.664Z,68.14
2018-07-15T02:28:39.872Z,68.46
2018-07-15T02:33:42.033Z,67.96
2018-07-15T02:38:44.239Z,68.36
2018-07-15T02:43:46.403Z,68.54
2018-07-15T02:48:48.588Z,68.35
2018-07-15T02:53:50.770Z,68.41
2018-07-15T02:58:52.952Z,68.31
2018-07-15T03:03:55.119Z,69.30
2018-07-15T03:08:57.252Z,69.84
2018-07-15T03:13:59.407Z,69.59
2018-07-15T03:19:01.550Z,69.86
2018-07-15T03:24:03.718Z,69.34
2018-07-15T03:29:05.925Z,69.65
2018-07-15T03:34:08.136Z,69.43
2018-07-15T03:39:10.414Z,69.23
2018-07-15T03:44:12.527Z,70.27
2018-07-15T03:49:14.675Z,69.53
2018-07-15T03:54:16.861Z,69.66
2018-07-15T03:59:19.000Z,70.10
2018-07-15T04:04:21.162Z,70.17
2018-07-15T04:09:23.325Z,69.34
2018-07-15T04:14:25.513Z,70.03
2018-07-15T04:19:27.720Z,70.85
2018-07-15T04:24:29.848Z,70.01
2018-07-15T04:29:32.010Z,70.14
2018-07-15T04:34:34.154Z,70.81
2018-07-15T04:39:36.273Z,71.78
2018-07-15T04:44:38.408Z,71.12
2018-07-15T04:49:40.534Z,71.66
2018-07-15T04:54:42.654Z,71.43
2018-07-15T04:59:44.770Z,70.80
2018-07-15T05:04:46.915Z,71.01
2018-07-15T05:09:49.042Z,70.67
2018-07-15T05:14:51.176Z,70.44
2018-07-15T05:19:53.369Z,70.47
2018-07-15T05:24:55.561Z,70.83
2018-07-15T05:29:57.764Z,70.23
2018-07-15T05:34:59.942Z,69.99
2018-07-15T05:40:02.126Z,70.47
2018-07-15T05:45:04.315Z,70.25
2018-07-15T05:50:06.468Z,69.75
2018-07-15T05:55:08.664Z,68.91
2018-07-15T06:00:10.848Z,68.58
2018-07-15T06:05:13.013Z,68.84
2018-07-15T06:10:15.200Z,68.14
2018-07-15T06:15:17.342Z,67.31
2018-07-15T06:20:19.472Z,66.74
2018-07-15T06:25:21.652Z,65.50
2018-07-15T06:30:23.836Z,65.97
2018-07-15T06:35:26.008Z,65.00
2018-07-15T06:40:28.217Z,64.50
2018-07-15T06:45:30.415Z,62.15
2018-07-15T06:50:32.588Z,61.95
2018-07-15T06:55:34.777Z,60.24
2018-07-15T07:00:36.962Z,59.02
2018-07-15T07:05:39.143Z,58.03
2018-07-15T07:10:41.295Z,56.93
2018-07-15T07:15:43.485Z,56.23
2018-07-15T07:20:45.656Z,56.76
2018-07-15T07:25:47.873Z,57.05
2018-07-15T07:30:50.069Z,56.77
2018-07-15T07:35:52.267Z,56.76
2018-07-15T07:40:54.439Z,56.14
2018-07-15T07:45:56.585Z,55.57
2018-07-15T07:50:58.726Z,56.20
2018-07-15T07:56:01.744Z,58.24
2018-07-15T08:01:03.918Z,58.27
2018-07-15T08:06:06.127Z,56.58
2018-07-15T08:11:08.308Z,57.25
2018-07-15T08:16:10.444Z,55.99
2018-07-15T08:21:12.656Z,55.62
2018-07-15T08:26:14.831Z,55.32
2018-07-15T08:31:18.429Z,57.23
2018-07-15T08:36:20.647Z,55.33
2018-07-15T08:41:22.811Z,55.32
2018-07-15T08:46:25.001Z,55.75
2018-07-15T08:51:27.162Z,55.82
2018-07-15T08:56:29.369Z,55.91
2018-07-15T09:01:31.552Z,56.97
2018-07-15T09:06:33.739Z,55.70
2018-07-15T09:11:35.969Z,54.35
2018-07-15T09:16:38.196Z,54.16
2018-07-15T09:21:40.459Z,55.84
2018-07-15T09:26:42.675Z,53.15
2018-07-15T09:31:45.676Z,54.23
2018-07-15T09:36:47.868Z,54.02
2018-07-15T09:41:50.140Z,51.70
2018-07-15T09:46:52.332Z,52.08
2018-07-15T09:51:54.551Z,50.71
2018-07-15T09:56:56.697Z,52.76
2018-07-15T10:01:58.935Z,51.73
2018-07-15T10:07:01.136Z,51.47
2018-07-15T10:12:03.354Z,51.35
2018-07-15T10:17:05.564Z,51.15
2018-07-15T10:22:07.759Z,50.75
2018-07-15T10:27:09.940Z,51.50
2018-07-15T10:32:12.227Z,50.13
2018-07-15T10:37:14.405Z,51.48
2018-07-15T10:42:16.636Z,50.24
2018-07-15T10:47:18.896Z,49.12
2018-07-15T10:52:21.253Z,47.47
2018-07-15T10:57:23.459Z,47.57
2018-07-15T11:02:25.723Z,45.00
2018-07-15T11:07:27.926Z,46.66
2018-07-15T11:12:30.219Z,45.47
2018-07-15T11:17:32.478Z,41.36
2018-07-15T11:22:35.070Z,44.99
2018-07-15T11:27:37.264Z,45.38
2018-07-15T11:32:39.698Z,46.55
2018-07-15T11:37:42.159Z,44.18
2018-07-15T11:42:44.404Z,43.47
2018-07-15T11:47:46.711Z,42.01
2018-07-15T11:52:49.005Z,40.32
2018-07-15T11:57:51.279Z,40.96
2018-07-15T12:02:53.895Z,40.67
2018-07-15T12:07:56.071Z,40.68
2018-07-15T12:12:58.268Z,38.55
2018-07-15T12:18:00.480Z,42.60
2018-07-15T12:23:02.782Z,45.35
2018-07-15T12:28:05.367Z,45.69
2018-07-15T12:33:08.205Z,45.15
2018-07-15T12:38:10.440Z,45.19
2018-07-15T12:43:15.689Z,46.26
2018-07-15T12:48:19.704Z,45.41
2018-07-15T12:53:22.672Z,41.43
2018-07-15T12:58:25.031Z,38.53
2018-07-15T13:03:27.618Z,37.84
2018-07-15T13:08:31.793Z,38.26
2018-07-15T13:13:36.184Z,38.14
2018-07-15T13:18:41.330Z,36.61
2018-07-15T13:23:45.213Z,34.56
2018-07-15T13:28:52.049Z,33.73
2018-07-15T13:33:58.439Z,34.58
2018-07-15T13:39:00.705Z,34.86
2018-07-15T13:44:02.996Z,34.50
2018-07-15T13:49:05.359Z,34.25
2018-07-15T13:54:07.559Z,34.01
2018-07-15T13:59:09.693Z,33.94
2018-07-15T14:04:11.874Z,35.24
2018-07-15T14:09:14.035Z,38.37
2018-07-15T14:14:16.209Z,40.10
2018-07-15T14:19:18.420Z,37.90
2018-07-15T14:24:20.650Z,37.44
2018-07-15T14:29:22.898Z,35.61
2018-07-15T14:34:25.146Z,35.35
2018-07-15T14:39:33.612Z,35.40
2018-07-15T14:44:37.531Z,34.10
2018-07-15T14:49:39.712Z,36.00
2018-07-15T14:54:41.871Z,37.75
2018-07-15T14:59:44.024Z,39.87
2018-07-15T15:04:46.234Z,40.72
2018-07-15T15:09:48.435Z,40.76
2018-07-15T15:14:50.618Z,39.14
2018-07-15T15:19:52.831Z,37.94
2018-07-15T15:24:55.007Z,37.19
2018-07-15T15:29:57.263Z,37.77
2018-07-15T15:34:59.447Z,37.78
2018-07-15T15:40:01.653Z,37.49
2018-07-15T15:45:03.976Z,36.24
2018-07-15T15:50:06.166Z,36.59
2018-07-15T15:55:08.376Z,37.85
2018-07-15T16:00:10.775Z,37.92
2018-07-15T16:05:12.980Z,37.19
2018-07-15T16:10:15.228Z,37.25
2018-07-15T16:15:17.405Z,36.96
2018-07-15T16:20:19.575Z,36.47
2018-07-15T16:25:21.765Z,36.39
2018-07-15T16:30:23.966Z,36.67
2018-07-15T16:35:26.198Z,37.54
2018-07-15T16:40:28.395Z,36.01
2018-07-15T16:45:30.608Z,35.94
2018-07-15T16:50:32.795Z,36.11
2018-07-15T16:55:35.136Z,36.45
2018-07-15T17:00:37.485Z,37.01
2018-07-15T17:05:39.611Z,36.88
2018-07-15T17:10:41.795Z,36.50
2018-07-15T17:15:44.025Z,36.29
2018-07-15T17:20:46.582Z,35.88
2018-07-15T17:25:48.772Z,36.04
2018-07-15T17:30:50.908Z,36.57
2018-07-15T17:35:53.132Z,36.37
2018-07-15T17:40:55.328Z,35.77
2018-07-15T17:45:57.520Z,35.48
2018-07-15T17:50:59.679Z,35.14
2018-07-15T17:56:01.885Z,36.01
2018-07-15T18:01:04.064Z,34.77
2018-07-15T18:06:06.297Z,36.68
2018-07-15T18:11:08.600Z,35.82
2018-07-15T18:16:10.901Z,35.62
2018-07-15T18:21:13.152Z,36.82
2018-07-15T18:26:15.333Z,37.42
2018-07-15T18:31:17.594Z,39.18
2018-07-15T18:36:19.829Z,39.86
2018-07-15T18:41:22.063Z,40.04
2018-07-15T18:46:24.281Z,41.18
2018-07-15T18:51:26.561Z,42.36
2018-07-15T18:56:28.839Z,41.61
2018-07-15T19:01:31.010Z,41.61
2018-07-15T19:06:33.220Z,42.11
2018-07-15T19:11:35.433Z,43.31
2018-07-15T19:16:37.691Z,43.41
2018-07-15T19:21:39.908Z,43.46
2018-07-15T19:26:42.220Z,43.26
2018-07-15T19:31:44.547Z,44.24
2018-07-15T19:36:46.820Z,44.20
2018-07-15T19:41:49.014Z,44.67
2018-07-15T19:46:51.285Z,44.75
2018-07-15T19:51:53.506Z,45.81
2018-07-15T19:56:55.768Z,46.20
2018-07-15T20:01:57.954Z,46.57
2018-07-15T20:07:00.273Z,46.90
2018-07-15T20:12:02.546Z,46.56
2018-07-15T20:17:04.991Z,47.50
2018-07-15T20:22:07.274Z,48.08
2018-07-15T20:27:09.526Z,49.13
2018-07-15T20:32:12.715Z,48.55
2018-07-15T20:37:14.957Z,48.90
2018-07-15T20:42:17.211Z,49.30
2018-07-15T20:47:19.464Z,49.83
2018-07-15T20:52:21.652Z,50.21
2018-07-15T20:57:24.116Z,50.59
2018-07-15T21:02:26.357Z,51.04
2018-07-15T21:07:28.551Z,51.16
2018-07-15T21:12:30.723Z,51.10
2018-07-15T21:17:32.915Z,51.55
2018-07-15T21:22:35.315Z,52.33
2018-07-15T21:27:37.498Z,53.66
2018-07-15T21:32:39.754Z,53.68
2018-07-15T21:37:42.040Z,53.56
2018-07-15T21:42:44.240Z,54.16
2018-07-15T21:47:46.424Z,54.19
2018-07-15T21:52:48.662Z,54.87
2018-07-15T21:57:50.855Z,54.20
2018-07-15T22:02:53.109Z,55.15
2018-07-15T22:08:06.702Z,55.27
2018-07-15T22:13:08.848Z,55.49
2018-07-15T22:18:11.063Z,55.16
2018-07-15T22:23:13.228Z,55.81
2018-07-15T22:28:15.378Z,56.23
2018-07-15T22:33:17.555Z,57.19
2018-07-15T22:38:19.823Z,58.13
2018-07-15T22:43:22.006Z,57.45
2018-07-15T22:48:24.194Z,58.05
2018-07-15T22:53:26.377Z,58.42
2018-07-15T22:58:28.545Z,59.18
2018-07-15T23:03:30.773Z,59.64
2018-07-15T23:08:33.089Z,59.72
2018-07-15T23:13:35.230Z,59.79
2018-07-15T23:18:37.400Z,60.46
2018-07-15T23:23:39.593Z,60.86
2018-07-15T23:28:41.732Z,61.39
2018-07-15T23:33:43.882Z,61.16
2018-07-15T23:38:46.068Z,62.23
2018-07-15T23:43:48.225Z,62.49
2018-07-15T23:48:50.388Z,61.64
2018-07-15T23:53:52.571Z,62.11
2018-07-15T23:58:54.708Z,62.53
